Data for 06/17/2008

Time Sea-Level Adjusted Pressure Absolute Pressure Temperature Relative Humidity Dew Point   
(mb) (inHg) (mb) (inHg) (C) (F) (%) (C) (F)
00:05 1019 30.09 848 25.04 15.2 59.3 52 5.4 41.8
00:10 1019 30.09 848 25.04 14.9 58.8 52 5.3 41.6
00:15 1019 30.09 848 25.04 14.8 58.6 52 5.2 41.4
00:20 1019 30.09 848 25.04 14.6 58.3 52 5.1 41.1
00:25 1019 30.09 848 25.04 14.8 58.6 50 4.6 40.3
00:30 1019 30.09 849 25.07 15.2 59.3 52 5.5 41.8
00:35 1020 30.12 849 25.07 14.9 58.8 51 4.9 40.9
00:40 1020 30.12 849 25.07 15 59 50 4.8 40.6
00:45 1020 30.12 849 25.07 15.4 59.8 51 5.5 42
00:50 1020 30.12 849 25.07 15.5 59.8 54 6.2 43.1
00:55 1019 30.09 849 25.07 15.2 59.4 52 5.4 41.8
01:00 1019 30.09 848 25.04 15.6 60 49 4.9 40.7
01:05 1019 30.09 848 25.04 16 60.8 46 4.5 40.1
01:10 1019 30.09 848 25.04 16.1 61 45 4.4 39.9
01:15 1019 30.09 848 25.04 16.3 61.3 48 5.4 41.8
01:20 1019 30.09 848 25.04 15.5 59.9 50 5.2 41.4
01:25 1019 30.09 848 25.04 15.2 59.4 51 5.2 41.4
01:30 1019 30.09 848 25.04 15.2 59.4 50 5 41
01:35 1019 30.09 848 25.04 15.3 59.5 50 5.1 41.2
01:40 1019 30.09 848 25.04 15.4 59.7 50 5.2 41.3
01:45 1019 30.09 848 25.04 15.3 59.5 50 5 41
01:50 1019 30.09 848 25.04 15.2 59.3 50 5 40.9
01:55 1019 30.09 848 25.04 15.1 59.2 50 4.9 40.9
02:00 1019 30.09 848 25.04 14.9 58.8 51 5.1 41.1
02:05 1019 30.09 848 25.04 14.9 58.8 52 5.2 41.4
02:10 1019 30.09 848 25.04 14.8 58.6 54 5.7 42.2
02:15 1019 30.09 848 25.04 14.5 58.1 54 5.5 41.9
02:20 1019 30.09 848 25.04 14.2 57.6 55 5.5 41.8
02:25 1019 30.09 849 25.07 14 57.3 54 4.9 40.9
02:30 1019 30.09 849 25.07 14.1 57.3 55 5.1 41.2
02:35 1019 30.09 848 25.04 13.9 57 55 5.1 41.3
02:40 1019 30.09 848 25.04 13.7 56.6 55 4.9 40.8
02:45 1019 30.09 849 25.07 13.7 56.6 56 5 41
02:50 1019 30.09 849 25.07 13.6 56.5 56 5 41
02:55 1019 30.09 849 25.07 13.6 56.5 57 5.3 41.5
03:00 1019 30.09 849 25.07 13.6 56.4 57 5.3 41.5
03:05 1020 30.12 849 25.07 13.6 56.4 60 6 42.7
03:10 1020 30.12 849 25.07 13.3 55.9 62 6.1 43
03:15 1020 30.12 849 25.07 13.1 55.6 62 6.1 43
03:20 1020 30.12 849 25.07 12.9 55.1 63 6.1 43
03:25 1020 30.12 849 25.07 12.6 54.6 64 5.9 42.7
03:30 1020 30.12 849 25.07 12.8 55 62 5.8 42.4
03:35 1020 30.12 849 25.07 12.8 55.1 62 5.7 42.2
03:40 1020 30.12 849 25.07 12.9 55.2 61 5.6 42.1
03:45 1020 30.12 849 25.07 12.8 55 61 5.6 42.1
03:50 1020 30.12 849 25.07 12.6 54.7 60 5.2 41.3
03:55 1020 30.12 849 25.07 12.5 54.5 62 5.4 41.8
04:00 1020 30.12 849 25.07 12.1 53.8 63 5.4 41.6
04:05 1020 30.12 849 25.07 11.9 53.5 64 5.4 41.7
04:10 1020 30.12 849 25.07 11.9 53.5 64 5.4 41.7
04:15 1020 30.12 849 25.07 11.9 53.4 64 5.4 41.6
04:20 1020 30.12 849 25.07 12 53.6 62 5.1 41.2
04:25 1020 30.12 849 25.07 11.8 53.3 65 5.5 41.9
04:30 1020 30.12 849 25.07 11.2 52.1 67 5.2 41.4
04:35 1020 30.12 849 25.07 11.2 52.2 65 4.9 40.9
04:40 1020 30.12 849 25.07 11.4 52.5 64 4.9 40.8
04:45 1020 30.12 849 25.07 11.7 53.1 63 4.9 40.8
04:50 1020 30.12 849 25.07 11.4 52.6 64 4.9 40.9
04:55 1020 30.12 849 25.07 11.1 51.9 66 4.9 40.8
05:00 1020 30.12 849 25.07 11 51.7 66 4.9 40.9
05:05 1020 30.12 849 25.07 10.8 51.4 68 5.1 41.2
05:10 1020 30.12 849 25.07 10.8 51.4 68 5.1 41.2
05:15 1020 30.12 849 25.07 10.8 51.5 68 5.2 41.4
05:20 1020 30.12 849 25.07 10.7 51.2 69 5.3 41.5
05:25 1020 30.12 849 25.07 10.4 50.6 70 5.2 41.3
05:30 1020 30.12 849 25.07 10.1 50.2 70 5 41
05:35 1020 30.12 849 25.07 10.2 50.3 70 5 41.1
05:40 1020 30.12 849 25.07 10.4 50.7 69 5 40.9
05:45 1020 30.12 849 25.07 10.4 50.8 69 5 41.1
05:50 1020 30.12 849 25.07 10.2 50.4 69 4.8 40.7
05:55 1020 30.12 849 25.07 10.1 50.1 70 4.8 40.6
06:00 1020 30.12 849 25.07 10.5 50.9 66 4.6 40.2
06:05 1020 30.12 850 25.1 10.8 51.5 66 4.7 40.5
06:10 1020 30.12 850 25.1 11.1 51.9 65 4.7 40.5
06:15 1020 30.12 850 25.1 12 53.6 62 4.9 40.9
06:20 1021 30.15 850 25.1 12.3 54.1 61 5.1 41.2
06:25 1021 30.15 850 25.1 12.2 54 60 4.9 40.8
06:30 1021 30.15 850 25.1 12 53.5 61 4.8 40.7
06:35 1021 30.15 850 25.1 12 53.6 62 5 41
06:40 1021 30.15 850 25.1 11.9 53.3 62 4.9 40.7
06:45 1021 30.15 850 25.1 11.8 53.3 62 4.9 40.9
06:50 1021 30.15 850 25.1 12 53.6 62 5 41
06:55 1021 30.15 850 25.1 12.2 53.9 62 5.1 41.2
07:00 1021 30.15 850 25.1 12.3 54.1 62 5.3 41.5
07:05 1021 30.15 850 25.1 12.2 54 62 5.3 41.6
07:10 1021 30.15 850 25.1 12.4 54.3 62 5.5 41.8
07:15 1021 30.15 850 25.1 12.6 54.8 62 5.6 42
07:20 1021 30.15 850 25.1 13.1 55.5 61 5.6 42.2
07:25 1021 30.15 850 25.1 13.3 56 60 5.8 42.5
07:30 1021 30.15 850 25.1 13.7 56.6 59 5.8 42.5
07:35 1021 30.15 850 25.1 14.1 57.4 58 6.1 43.1
07:40 1021 30.15 850 25.1 14.4 57.9 57 6.1 43
07:45 1021 30.15 850 25.1 14.7 58.4 57 6.2 43.2
07:50 1021 30.15 850 25.1 14.6 58.3 58 6.4 43.5
07:55 1021 30.15 850 25.1 14.8 58.6 57 6.5 43.7
08:00 1021 30.15 850 25.1 15.4 59.6 55 6.3 43.4
08:05 1021 30.15 850 25.1 15.9 60.6 53 6.4 43.6
08:10 1021 30.15 850 25.1 16.6 61.8 52 6.7 44.1
08:15 1021 30.15 850 25.1 16.8 62.2 51 6.6 43.8
08:20 1021 30.15 850 25.1 16.9 62.5 49 6.4 43.5
08:25 1021 30.15 850 25.1 17.4 63.2 49 6.7 44
08:30 1021 30.15 850 25.1 18 64.3 45 5.9 42.6
08:35 1021 30.15 850 25.1 18.2 64.8 44 5.8 42.4
08:40 1021 30.15 850 25.1 18.4 65.1 41 5 41
08:45 1021 30.15 850 25.1 18.5 65.3 41 5.2 41.3
08:50 1021 30.15 850 25.1 18 64.3 42 4.9 40.8
08:55 1021 30.15 850 25.1 17.6 63.8 43 5 41.1
09:00 1021 30.15 850 25.1 17.4 63.3 45 5.5 41.9
09:05 1021 30.15 850 25.1 17.9 64.1 44 5.6 42.1
09:10 1021 30.15 850 25.1 18.1 64.5 44 5.9 42.6
09:15 1021 30.15 850 25.1 18 64.5 45 5.9 42.7
09:20 1021 30.15 850 25.1 18.1 64.5 44 5.9 42.6
09:25 1021 30.15 850 25.1 18.9 66 42 5.7 42.3
09:30 1021 30.15 850 25.1 19.5 67 40 5.8 42.5
09:35 1021 30.15 850 25.1 19.2 66.5 41 5.7 42.2
09:40 1021 30.15 850 25.1 19.1 66.3 40 5.2 41.4
09:45 1021 30.15 850 25.1 19.9 67.8 38 5.4 41.7
09:50 1021 30.15 850 25.1 20.7 69.2 35 4.9 40.8
09:55 1021 30.15 850 25.1 20.9 69.6 35 4.9 40.8
10:00 1021 30.15 850 25.1 20.5 68.8 38 5.7 42.3
10:05 1021 30.15 850 25.1 20.2 68.4 37 5 41.1
10:10 1021 30.15 850 25.1 20.7 69.2 35 4.8 40.7
10:15 1021 30.15 850 25.1 19.7 67.5 39 5.5 41.9
10:20 1021 30.15 850 25.1 20.1 68.2 37 5 40.9
10:25 1021 30.15 850 25.1 19.7 67.5 37 4.8 40.7
10:30 1021 30.15 850 25.1 20.3 68.6 35 4.5 40.2
10:35 1021 30.15 850 25.1 21.3 70.4 33 4.7 40.5
10:40 1021 30.15 850 25.1 22.1 71.8 33 5.1 41.1
10:45 1021 30.15 850 25.1 21.1 70 35 5.3 41.5
10:50 1021 30.15 850 25.1 20.6 69.1 36 5 41
10:55 1021 30.15 850 25.1 21.6 71 32 4.5 40.1
11:00 1021 30.15 850 25.1 22.3 72.1 31 4.4 39.9
11:05 1021 30.15 850 25.1 21.9 71.5 32 4.7 40.5
11:10 1021 30.15 850 25.1 22.4 72.3 32 5.1 41.2
11:15 1021 30.15 850 25.1 23.1 73.5 31 5.1 41.1
11:20 1021 30.15 850 25.1 23 73.4 32 5.5 41.8
11:25 1020 30.12 850 25.1 22.9 73.3 31 5.2 41.4
11:30 1020 30.12 850 25.1 22.9 73.2 31 5.1 41.1
11:35 1020 30.12 850 25.1 22.9 73.2 32 5.7 42.3
11:40 1020 30.12 850 25.1 22.9 73.2 33 5.8 42.4
11:45 1020 30.12 849 25.07 22.7 72.9 32 5.5 42
11:50 1020 30.12 849 25.07 22.9 73.3 32 5.5 41.9
11:55 1020 30.12 849 25.07 23.3 74 31 5.7 42.2
12:00 1020 30.12 849 25.07 23.6 74.5 31 5.7 42.2
12:05 1020 30.12 849 25.07 24.3 75.8 30 5.9 42.7
12:10 1020 30.12 849 25.07 24.5 76.1 30 6.2 43.1
12:15 1020 30.12 849 25.07 24.6 76.4 31 6.5 43.8
12:20 1020 30.12 849 25.07 23.6 74.5 32 6.1 43
12:25 1020 30.12 849 25.07 24.4 75.8 31 6.2 43.2
12:30 1020 30.12 849 25.07 24.3 75.7 30 5.9 42.6
12:35 1020 30.12 849 25.07 24.2 75.5 30 5.6 42.1
12:40 1020 30.12 849 25.07 25.2 77.4 30 6.7 44
12:45 1020 30.12 849 25.07 25 77 30 6.5 43.7
12:50 1020 30.12 849 25.07 24.8 76.7 30 6.3 43.3
12:55 1020 30.12 849 25.07 25.5 77.9 29 6.3 43.3
13:00 1020 30.12 849 25.07 24.9 76.8 29 5.9 42.6
13:05 1020 30.12 849 25.07 24.8 76.7 28 5.5 42
13:10 1020 30.12 849 25.07 24.4 76 29 5.4 41.6
13:15 1020 30.12 849 25.07 25.3 77.5 29 6 42.8
13:20 1020 30.12 849 25.07 25.9 78.6 28 6.1 43
13:25 1020 30.12 849 25.07 25.6 78.2 28 6.1 42.9
13:30 1019 30.09 849 25.07 25.7 78.3 26 5.3 41.5
13:35 1019 30.09 849 25.07 26.4 79.4 25 5.2 41.4
13:40 1019 30.09 849 25.07 26.7 80.1 24 4.5 40.1
13:45 1019 30.09 849 25.07 26.4 79.6 25 5.1 41.1
13:50 1019 30.09 848 25.04 26.9 80.5 24 4.7 40.5
13:55 1019 30.09 848 25.04 26.6 79.8 23 3.7 38.7
14:00 1019 30.09 848 25.04 26.5 79.6 21 2.6 36.6
14:05 1019 30.09 848 25.04 26 78.8 19 0.7 33.3
14:10 1019 30.09 848 25.04 26.5 79.7 20 2.3 36.1
14:15 1019 30.09 848 25.04 27 80.5 21 2.8 37
14:20 1019 30.09 848 25.04 26.8 80.2 22 3.5 38.2
14:25 1019 30.09 848 25.04 27 80.5 19 1.6 34.9
14:30 1019 30.09 848 25.04 27 80.5 19 1.4 34.6
14:35 1019 30.09 848 25.04 26.7 80.1 19 1.8 35.2
14:40 1019 30.09 848 25.04 26.9 80.4 20 2.3 36.2
14:45 1019 30.09 848 25.04 27.3 81.2 19 1.7 35.1
14:50 1018 30.06 848 25.04 27 80.6 20 2.4 36.3
14:55 1018 30.06 848 25.04 28.1 82.6 16 0.1 32.2
15:00 1018 30.06 848 25.04 28.1 82.6 18 1.7 35.1
15:05 1019 30.09 848 25.04 27.6 81.7 19 2 35.6
15:10 1018 30.06 848 25.04 27.7 81.9 18 1.8 35.2
15:15 1018 30.06 848 25.04 27.7 81.9 17 1 33.8
15:20 1018 30.06 848 25.04 28.1 82.6 17 0.9 33.7
15:25 1018 30.06 847 25.01 28.7 83.7 16 0.4 32.6
15:30 1018 30.06 847 25.01 28.1 82.5 16 0.5 32.9
15:35 1018 30.06 847 25.01 27.8 82.1 18 1.4 34.5
15:40 1018 30.06 847 25.01 27.9 82.3 16 0.2 32.3
15:45 1018 30.06 847 25.01 27.4 81.4 16 -0.1 31.9
15:50 1018 30.06 847 25.01 27.4 81.3 17 0.4 32.8
15:55 1018 30.06 847 25.01 27.5 81.5 17 0.6 33.1
16:00 1018 30.06 847 25.01 27.2 80.9 18 0.9 33.7
16:05 1018 30.06 847 25.01 27.7 81.8 16 -0 32
16:10 1018 30.06 847 25.01 27.4 81.3 17 0.5 33
16:15 1017 30.03 847 25.01 27.3 81.2 17 0.6 33
16:20 1017 30.03 847 25.01 27.7 81.8 18 1.4 34.5
16:25 1017 30.03 846 24.98 27.9 82.1 18 1.9 35.4
16:30 1017 30.03 847 25.01 27.2 80.9 18 1.3 34.4
16:35 1017 30.03 846 24.98 26.6 79.8 19 1.1 33.9
16:40 1017 30.03 847 25.01 26.4 79.5 21 2.8 37.1
16:45 1017 30.03 847 25.01 26.2 79.1 22 3 37.4
16:50 1018 30.06 847 25.01 25.6 78.1 22 2.6 36.6
16:55 1018 30.06 847 25.01 25.5 77.8 27 5.2 41.3
17:00 1018 30.06 847 25.01 25.3 77.5 29 6.1 42.9
17:05 1018 30.06 847 25.01 25 77.1 30 6.3 43.3
17:10 1018 30.06 848 25.04 24.1 75.4 32 6.4 43.6
17:15 1018 30.06 847 25.01 23.6 74.4 33 6.7 44.1
17:20 1017 30.03 847 25.01 23.4 74.1 39 8.7 47.7
17:25 1017 30.03 846 24.98 23.2 73.7 35 7.3 45.1
17:30 1017 30.03 846 24.98 22.9 73.2 37 7.6 45.7
17:35 1017 30.03 847 25.01 23 73.4 31 5.2 41.3
17:40 1017 30.03 846 24.98 23.2 73.8 33 6.3 43.3
17:45 1017 30.03 846 24.98 23 73.5 33 6 42.9
17:50 1017 30.03 847 25.01 22.9 73.2 40 8.7 47.7
17:55 1017 30.03 847 25.01 22.6 72.7 40 8.4 47.1
18:00 1018 30.06 847 25.01 22.8 73 38 7.8 46
18:05 1018 30.06 847 25.01 22.9 73.2 40 8.9 48.1
18:10 1018 30.06 847 25.01 22.6 72.6 47 10.7 51.3
18:15 1017 30.03 846 24.98 21.9 71.4 48 10.6 51
18:20 1017 30.03 846 24.98 21.7 71 47 10 50
18:25 1017 30.03 846 24.98 21.7 71 44 9.1 48.3
18:30 1017 30.03 846 24.98 21.8 71.3 41 8.1 46.5
18:35 1017 30.03 846 24.98 21.9 71.5 39 7.6 45.7
18:40 1017 30.03 846 24.98 22 71.6 40 8 46.4
18:45 1017 30.03 846 24.98 21.9 71.4 42 8.5 47.4
18:50 1016 30 846 24.98 21.7 71.1 44 9.1 48.4
18:55 1016 30 845 24.95 21.5 70.8 45 9.2 48.6
19:00 1016 30 845 24.95 21.4 70.6 45 9.1 48.4
19:05 1016 30 845 24.95 21.4 70.6 41 7.9 46.2
19:10 1016 30 846 24.98 22.2 71.9 36 6.5 43.6
19:15 1016 30 846 24.98 22.8 73 39 8.3 46.9
19:20 1016 30 846 24.98 22.5 72.6 41 8.7 47.7
19:25 1017 30.03 846 24.98 22.5 72.6 40 8.5 47.4
19:30 1017 30.03 846 24.98 22.6 72.7 39 8.1 46.7
19:35 1017 30.03 846 24.98 22.6 72.6 38 7.9 46.2
19:40 1017 30.03 846 24.98 22.5 72.6 39 8.2 46.8
19:45 1017 30.03 846 24.98 22.3 72.1 41 8.7 47.6
19:50 1017 30.03 846 24.98 21.8 71.3 42 8.6 47.5
19:55 1017 30.03 846 24.98 21.9 71.5 47 10.3 50.6
20:00 1017 30.03 846 24.98 21.6 71 45 9.4 49
20:05 1017 30.03 846 24.98 21.3 70.3 45 9.1 48.3
20:10 1017 30.03 846 24.98 21 69.8 47 9.3 48.7
20:15 1017 30.03 846 24.98 20.5 68.9 49 9.7 49.4
20:20 1017 30.03 846 24.98 20.1 68.1 49 9.3 48.7
20:25 1017 30.03 847 25.01 19.9 67.8 50 9.4 48.9
20:30 1017 30.03 847 25.01 19.8 67.7 52 9.8 49.7
20:35 1017 30.03 847 25.01 19.8 67.6 52 9.7 49.5
20:40 1018 30.06 847 25.01 19.7 67.4 51 9.3 48.8
20:45 1018 30.06 847 25.01 19.7 67.4 51 9.4 48.9
20:50 1018 30.06 847 25.01 19.3 66.7 59 11.2 52.1
20:55 1018 30.06 847 25.01 18.1 64.5 63 11 51.8
21:00 1018 30.06 847 25.01 17.8 64 63 10.8 51.4
21:05 1018 30.06 847 25.01 17.7 63.9 62 10.4 50.7
21:10 1018 30.06 847 25.01 17.6 63.7 62 10.4 50.8
21:15 1018 30.06 847 25.01 17.5 63.4 61 10.1 50.1
21:20 1018 30.06 847 25.01 17.3 63.2 60 9.6 49.3
21:25 1018 30.06 847 25.01 17.1 62.9 58 8.9 48.1
21:30 1018 30.06 847 25.01 17 62.6 60 9.3 48.7
21:35 1018 30.06 847 25.01 16.7 62 60 8.9 48
21:40 1018 30.06 848 25.04 16.7 62 60 8.8 47.9
21:45 1019 30.09 848 25.04 16.5 61.7 60 8.7 47.7
21:50 1019 30.09 848 25.04 16.9 62.3 57 8.5 47.2
21:55 1019 30.09 848 25.04 16.9 62.4 57 8.5 47.3
22:00 1019 30.09 848 25.04 16.9 62.5 56 8.3 46.9
22:05 1019 30.09 848 25.04 17.2 63 54 7.8 46.1
22:10 1019 30.09 848 25.04 17.4 63.2 57 8.9 48
22:15 1019 30.09 849 25.07 16.9 62.3 59 8.8 47.9
22:20 1019 30.09 849 25.07 17 62.5 57 8.4 47.2
22:25 1019 30.09 849 25.07 17.4 63.3 54 8 46.5
22:30 1020 30.12 849 25.07 17.4 63.4 55 8.4 47.1
22:35 1020 30.12 849 25.07 17.2 63 55 8.3 47
22:40 1020 30.12 849 25.07 17.1 62.7 56 8.3 47
22:45 1020 30.12 849 25.07 17 62.6 57 8.5 47.2
22:50 1020 30.12 849 25.07 16.7 62 58 8.4 47.2
22:55 1020 30.12 849 25.07 16.3 61.3 59 8.5 47.2
23:00 1020 30.12 849 25.07 16 60.8 59 8.2 46.8
23:05 1020 30.12 849 25.07 16.1 60.9 58 8 46.4
23:10 1020 30.12 849 25.07 16.1 61 57 7.8 46
23:15 1020 30.12 849 25.07 16.2 61.1 56 7.4 45.4
23:20 1020 30.12 849 25.07 16.2 61.2 55 7.2 45
23:25 1020 30.12 849 25.07 16.3 61.3 54 7.1 44.8
23:30 1020 30.12 849 25.07 16.2 61.1 56 7.4 45.3
23:35 1020 30.12 850 25.1 15.9 60.6 57 7.5 45.5
23:40 1021 30.15 850 25.1 15.8 60.5 57 7.3 45.2
23:45 1021 30.15 850 25.1 15.9 60.6 56 7.3 45.1
23:50 1021 30.15 850 25.1 15.8 60.5 57 7.4 45.3
23:55 1021 30.15 850 25.1 15.7 60.3 58 7.5 45.5
24:00 1021 30.15 850 25.1 15.5 59.9 60 7.7 45.9